createdAt,value
2022-10-05T00:00:55.661Z,11.74
2022-10-05T00:03:26.181Z,11.77
2022-10-05T00:05:53.877Z,11.82
2022-10-05T00:08:30.908Z,11.79
2022-10-05T00:10:58.079Z,11.81
2022-10-05T00:13:29.262Z,11.77
2022-10-05T00:16:11.657Z,11.71
2022-10-05T00:18:39.683Z,11.65
2022-10-05T00:21:25.956Z,11.69
2022-10-05T00:23:56.966Z,11.64
2022-10-05T00:26:27.450Z,11.69
2022-10-05T00:28:55.241Z,11.64
2022-10-05T00:31:26.743Z,11.67
2022-10-05T00:33:55.017Z,11.24
2022-10-05T00:36:22.546Z,10.92
2022-10-05T00:38:49.554Z,11.24
2022-10-05T00:41:45.112Z,10.92
2022-10-05T00:44:24.396Z,11.05
2022-10-05T00:47:11.012Z,11.18
2022-10-05T00:49:56.979Z,11.28
2022-10-05T00:52:52.214Z,11.30
2022-10-05T00:55:43.611Z,11.25
2022-10-05T00:58:13.526Z,11.17
2022-10-05T01:01:21.910Z,11.15
2022-10-05T01:04:17.470Z,11.10
2022-10-05T01:06:53.119Z,10.90
2022-10-05T01:09:48.462Z,11.02
2022-10-05T01:12:25.454Z,11.06
2022-10-05T01:15:18.672Z,11.04
2022-10-05T01:18:24.507Z,11.07
2022-10-05T01:21:17.219Z,10.93
2022-10-05T01:24:29.325Z,10.86
2022-10-05T01:27:13.903Z,10.93
2022-10-05T01:30:14.312Z,10.89
2022-10-05T01:32:56.538Z,10.94
2022-10-05T01:35:38.593Z,10.82
2022-10-05T01:38:25.425Z,10.93
2022-10-05T01:41:25.964Z,10.60
2022-10-05T01:44:05.814Z,10.67
2022-10-05T01:46:46.299Z,10.73
2022-10-05T01:49:31.149Z,10.76
2022-10-05T01:52:28.549Z,10.75
2022-10-05T01:55:26.936Z,10.69
2022-10-05T01:58:25.909Z,10.61
2022-10-05T02:01:05.169Z,10.68
2022-10-05T02:03:43.578Z,10.53
2022-10-05T02:06:23.878Z,10.65
2022-10-05T02:09:01.196Z,10.64
2022-10-05T02:11:28.483Z,10.68
2022-10-05T02:14:07.424Z,10.53
2022-10-05T02:16:41.853Z,10.52
2022-10-05T02:19:25.962Z,10.56
2022-10-05T02:22:09.246Z,10.61
2022-10-05T02:24:45.431Z,10.62
2022-10-05T02:27:21.241Z,10.66
2022-10-05T02:29:52.445Z,10.68
2022-10-05T02:32:26.421Z,10.66
2022-10-05T02:34:59.746Z,10.64
2022-10-05T02:37:36.087Z,10.62
2022-10-05T02:40:21.268Z,10.66
2022-10-05T02:43:08.406Z,10.54
2022-10-05T02:45:49.585Z,10.59
2022-10-05T02:48:22.677Z,10.44
2022-10-05T02:50:57.090Z,10.48
2022-10-05T02:53:37.934Z,10.49
2022-10-05T02:56:13.873Z,10.50
2022-10-05T02:59:19.493Z,10.51
2022-10-05T03:02:05.026Z,10.49
2022-10-05T03:04:51.174Z,10.50
2022-10-05T03:07:27.884Z,10.43
2022-10-05T03:10:08.474Z,10.47
2022-10-05T03:13:06.361Z,10.44
2022-10-05T03:16:08.779Z,10.26
2022-10-05T03:19:18.571Z,10.04
2022-10-05T03:22:14.239Z,10.04
2022-10-05T03:25:12.753Z,10.07
2022-10-05T03:28:04.111Z,10.02
2022-10-05T03:31:08.160Z,9.81
2022-10-05T03:34:04.171Z,9.67
2022-10-05T03:37:34.910Z,9.84
2022-10-05T03:40:10.401Z,9.46
2022-10-05T03:43:34.237Z,9.59
2022-10-05T03:46:23.279Z,9.85
2022-10-05T03:49:46.701Z,9.82
2022-10-05T03:53:11.662Z,9.67
2022-10-05T03:55:49.192Z,9.43
2022-10-05T03:59:12.599Z,9.62
2022-10-05T04:02:36.138Z,9.64
2022-10-05T04:06:00.867Z,9.47
2022-10-05T04:09:24.338Z,9.42
2022-10-05T04:12:21.429Z,9.69
2022-10-05T04:15:05.108Z,9.72
2022-10-05T04:17:41.673Z,9.74
2022-10-05T04:21:05.267Z,9.87
2022-10-05T04:23:44.821Z,9.90
2022-10-05T04:27:08.639Z,9.94
2022-10-05T04:29:41.594Z,9.90
2022-10-05T04:32:33.556Z,9.97
2022-10-05T04:35:57.262Z,9.95
2022-10-05T04:39:21.759Z,9.87
2022-10-05T04:42:22.068Z,9.88
2022-10-05T04:45:26.135Z,9.89
2022-10-05T04:47:59.452Z,9.85
2022-10-05T04:51:15.251Z,9.85
2022-10-05T04:53:56.189Z,9.88
2022-10-05T04:56:54.134Z,9.71
2022-10-05T04:59:49.279Z,9.71
2022-10-05T05:02:36.741Z,9.78
2022-10-05T05:06:05.358Z,9.90
2022-10-05T05:08:45.695Z,9.84
2022-10-05T05:11:33.943Z,9.83
2022-10-05T05:14:26.653Z,9.81
2022-10-05T05:17:34.079Z,9.79
2022-10-05T05:20:51.709Z,9.77
2022-10-05T05:24:16.021Z,9.58
2022-10-05T05:27:36.866Z,9.70
2022-10-05T05:31:01.373Z,9.63
2022-10-05T05:33:56.928Z,9.56
2022-10-05T05:36:39.157Z,9.52
2022-10-05T05:39:30.050Z,9.37
2022-10-05T05:42:55.941Z,9.39
2022-10-05T05:46:33.983Z,9.42
2022-10-05T05:49:24.155Z,9.48
2022-10-05T05:52:47.904Z,9.53
2022-10-05T05:55:30.489Z,9.55
2022-10-05T05:58:11.714Z,9.56
2022-10-05T06:01:39.500Z,9.60
2022-10-05T06:04:15.972Z,9.51
2022-10-05T06:07:40.359Z,9.66
2022-10-05T06:11:03.996Z,9.51
2022-10-05T06:14:27.643Z,9.44
2022-10-05T06:17:03.925Z,9.51
2022-10-05T06:19:34.952Z,9.59
2022-10-05T06:23:00.526Z,9.73
2022-10-05T06:25:57.631Z,9.72
2022-10-05T06:28:27.192Z,9.93
2022-10-05T06:31:39.281Z,10.10
2022-10-05T06:34:34.847Z,10.18
2022-10-05T06:37:12.520Z,10.26
2022-10-05T06:39:51.897Z,10.38
2022-10-05T06:42:27.940Z,10.36
2022-10-05T06:45:43.201Z,10.43
2022-10-05T06:49:03.615Z,10.40
2022-10-05T06:52:45.979Z,10.51
2022-10-05T06:56:09.776Z,10.68
2022-10-05T06:58:58.983Z,10.79
2022-10-05T07:02:22.584Z,10.91
2022-10-05T07:05:28.790Z,10.74
2022-10-05T07:08:16.310Z,10.82
2022-10-05T07:11:02.513Z,11.04
2022-10-05T07:14:09.143Z,11.15
2022-10-05T07:17:14.612Z,11.31
2022-10-05T07:20:20.351Z,11.37
2022-10-05T07:23:04.047Z,11.43
2022-10-05T07:25:35.529Z,11.65
2022-10-05T07:28:40.934Z,11.81
2022-10-05T07:31:45.870Z,11.95
2022-10-05T07:34:52.350Z,12.21
2022-10-05T07:37:55.405Z,12.30
2022-10-05T07:40:42.187Z,12.41
2022-10-05T07:43:14.439Z,12.48
2022-10-05T07:45:42.687Z,12.59
2022-10-05T07:48:22.579Z,12.78
2022-10-05T07:51:00.236Z,12.86
2022-10-05T07:53:37.688Z,12.92
2022-10-05T07:56:43.712Z,12.88
2022-10-05T07:59:50.371Z,12.96
2022-10-05T08:02:44.401Z,13.15
2022-10-05T08:05:23.036Z,13.48
2022-10-05T08:07:55.648Z,13.21
2022-10-05T08:11:00.607Z,13.61
2022-10-05T08:14:06.283Z,13.78
2022-10-05T08:16:38.586Z,13.95
2022-10-05T08:19:43.973Z,14.06
2022-10-05T08:22:49.220Z,14.22
2022-10-05T08:25:54.276Z,14.31
2022-10-05T08:28:56.823Z,14.53
2022-10-05T08:31:27.186Z,14.51
2022-10-05T08:34:32.633Z,14.64
2022-10-05T08:37:28.523Z,14.57
2022-10-05T08:40:33.742Z,14.89
2022-10-05T08:43:38.944Z,15.22
2022-10-05T08:46:34.283Z,15.28
2022-10-05T08:49:20.033Z,15.36
2022-10-05T08:52:25.886Z,15.73
2022-10-05T08:55:27.332Z,15.63
2022-10-05T08:58:22.787Z,15.77
2022-10-05T09:01:12.513Z,15.89
2022-10-05T09:03:48.540Z,15.91
2022-10-05T09:06:44.202Z,16.13
2022-10-05T09:09:42.142Z,16.42
2022-10-05T09:12:47.677Z,16.34
2022-10-05T09:15:30.114Z,16.48
2022-10-05T09:18:29.963Z,16.55
2022-10-05T09:21:08.585Z,16.76
2022-10-05T09:23:43.500Z,16.60
2022-10-05T09:26:41.195Z,16.82
2022-10-05T09:29:34.174Z,17.23
2022-10-05T09:32:35.836Z,17.42
2022-10-05T09:35:27.352Z,17.81
2022-10-05T09:38:00.759Z,18.01
2022-10-05T09:41:06.899Z,18.00
2022-10-05T09:44:04.898Z,18.21
2022-10-05T09:46:51.342Z,18.05
2022-10-05T09:49:39.929Z,18.38
2022-10-05T09:52:19.044Z,18.63
2022-10-05T09:55:14.085Z,18.80
2022-10-05T09:58:03.188Z,18.74
2022-10-05T10:01:03.853Z,19.25
2022-10-05T10:04:32.464Z,19.38
2022-10-05T10:07:54.079Z,19.54
2022-10-05T10:11:09.514Z,19.82
2022-10-05T10:14:11.505Z,20.14
2022-10-05T10:17:17.009Z,20.11
2022-10-05T10:20:24.624Z,20.44
2022-10-05T10:23:19.720Z,20.56
2022-10-05T10:26:44.347Z,20.76
2022-10-05T10:29:43.084Z,20.81
2022-10-05T10:32:36.312Z,21.13
2022-10-05T10:35:31.683Z,21.19
2022-10-05T10:38:30.932Z,21.66
2022-10-05T10:41:42.037Z,21.77
2022-10-05T10:44:48.206Z,22.16
2022-10-05T10:48:12.064Z,22.40
2022-10-05T10:51:35.913Z,22.64
2022-10-05T10:54:18.625Z,22.88
2022-10-05T10:57:05.899Z,22.69
2022-10-05T11:00:21.547Z,23.19
2022-10-05T11:03:45.239Z,23.45
2022-10-05T11:07:09.177Z,23.62
2022-10-05T11:10:38.876Z,23.68
2022-10-05T11:13:31.004Z,23.91
2022-10-05T11:16:54.396Z,23.89
2022-10-05T11:20:17.883Z,24.29
2022-10-05T11:22:59.081Z,24.55
2022-10-05T11:26:11.643Z,24.40
2022-10-05T11:29:35.972Z,24.71
2022-10-05T11:32:43.556Z,24.97
2022-10-05T11:35:28.677Z,24.96
2022-10-05T11:38:19.840Z,25.43
2022-10-05T11:41:41.245Z,25.72
2022-10-05T11:44:24.344Z,26.19
2022-10-05T11:47:12.898Z,26.29
2022-10-05T11:49:59.196Z,26.66
2022-10-05T11:52:45.977Z,27.17
2022-10-05T11:55:19.527Z,27.38
2022-10-05T11:57:57.966Z,28.12
2022-10-05T12:00:42.524Z,28.36
2022-10-05T12:03:39.793Z,29.41
2022-10-05T12:06:25.656Z,28.94
2022-10-05T12:09:04.622Z,29.08
2022-10-05T12:11:49.402Z,30.14
2022-10-05T12:14:49.383Z,31.21
2022-10-05T12:17:40.764Z,30.31
2022-10-05T12:20:26.021Z,31.40
2022-10-05T12:23:06.326Z,31.51
2022-10-05T12:25:42.359Z,32.41
2022-10-05T12:28:13.742Z,33.14
2022-10-05T12:31:11.805Z,33.77
2022-10-05T12:33:59.837Z,32.96
2022-10-05T12:36:59.681Z,33.05
2022-10-05T12:39:50.967Z,33.62
2022-10-05T12:42:36.972Z,33.74
2022-10-05T12:45:15.415Z,33.82
2022-10-05T12:48:19.302Z,32.83
2022-10-05T12:50:53.582Z,33.60
2022-10-05T12:54:01.631Z,33.98
2022-10-05T12:56:59.112Z,33.21
2022-10-05T13:00:03.439Z,34.86
2022-10-05T13:03:28.583Z,34.81
2022-10-05T13:06:52.204Z,32.14
2022-10-05T13:10:15.989Z,33.33
2022-10-05T13:13:41.865Z,33.36
2022-10-05T13:17:05.625Z,33.08
2022-10-05T13:20:28.944Z,32.97
2022-10-05T13:23:57.116Z,34.25
2022-10-05T13:27:22.192Z,35.49
2022-10-05T13:30:45.974Z,34.90
2022-10-05T13:34:09.437Z,34.32
2022-10-05T13:37:32.620Z,33.84
2022-10-05T13:40:57.993Z,33.98
2022-10-05T13:44:21.256Z,35.07
2022-10-05T13:47:44.902Z,35.12
2022-10-05T13:51:08.080Z,35.22
2022-10-05T13:54:31.570Z,34.34
2022-10-05T13:57:55.488Z,33.92
2022-10-05T14:00:26.959Z,34.84
2022-10-05T14:02:57.603Z,35.79
2022-10-05T14:05:29.269Z,37.16
2022-10-05T14:08:02.484Z,37.64
2022-10-05T14:10:38.272Z,35.59
2022-10-05T14:13:19.975Z,36.35
2022-10-05T14:16:25.336Z,34.84
2022-10-05T14:19:04.262Z,35.00
2022-10-05T14:22:11.125Z,35.22
2022-10-05T14:24:56.638Z,34.58
2022-10-05T14:27:30.818Z,34.70
2022-10-05T14:30:21.983Z,34.91
2022-10-05T14:33:03.807Z,35.63
2022-10-05T14:35:52.657Z,37.78
2022-10-05T14:38:29.726Z,38.39
2022-10-05T14:41:18.211Z,38.13
2022-10-05T14:43:55.959Z,36.99
2022-10-05T14:46:29.107Z,37.32
2022-10-05T14:49:25.841Z,36.70
2022-10-05T14:52:51.787Z,37.36
2022-10-05T14:55:46.922Z,36.38
2022-10-05T14:58:48.277Z,36.07
2022-10-05T15:01:26.197Z,35.68
2022-10-05T15:04:49.900Z,34.55
2022-10-05T15:07:24.189Z,34.89
2022-10-05T15:10:03.841Z,34.40
2022-10-05T15:12:49.887Z,35.42
2022-10-05T15:16:14.113Z,36.09
2022-10-05T15:18:57.495Z,36.98
2022-10-05T15:22:21.180Z,35.26
2022-10-05T15:25:03.772Z,35.67
2022-10-05T15:27:44.156Z,34.18
2022-10-05T15:31:07.722Z,34.27
2022-10-05T15:33:40.198Z,34.17
2022-10-05T15:37:03.766Z,34.83
2022-10-05T15:40:28.534Z,35.59
2022-10-05T15:43:52.188Z,35.34
2022-10-05T15:47:15.534Z,34.70
2022-10-05T15:50:39.213Z,32.97
2022-10-05T15:54:21.679Z,32.57
2022-10-05T15:57:45.524Z,32.64
2022-10-05T16:01:09.408Z,33.54
2022-10-05T16:03:51.762Z,33.87
2022-10-05T16:07:34.478Z,34.95
2022-10-05T16:10:18.483Z,35.17
2022-10-05T16:13:46.867Z,34.27
2022-10-05T16:16:40.622Z,32.78
2022-10-05T16:20:04.460Z,30.95
2022-10-05T16:22:59.676Z,29.96
2022-10-05T16:26:00.356Z,29.95
2022-10-05T16:28:50.352Z,29.76
2022-10-05T16:31:47.058Z,29.82
2022-10-05T16:35:10.739Z,28.64
2022-10-05T16:38:34.480Z,28.12
2022-10-05T16:41:19.568Z,27.13
2022-10-05T16:44:00.471Z,27.27
2022-10-05T16:46:47.505Z,26.85
2022-10-05T16:49:33.339Z,26.60
2022-10-05T16:52:04.787Z,26.58
2022-10-05T16:54:39.058Z,26.47
2022-10-05T16:57:23.337Z,26.34
2022-10-05T17:00:15.923Z,26.18
2022-10-05T17:03:14.053Z,25.66
2022-10-05T17:06:04.538Z,25.38
2022-10-05T17:08:38.873Z,25.18
2022-10-05T17:11:34.887Z,24.97
2022-10-05T17:14:34.130Z,24.60
2022-10-05T17:17:31.567Z,24.11
2022-10-05T17:20:55.572Z,23.92
2022-10-05T17:23:51.400Z,23.76
2022-10-05T17:26:56.477Z,23.64
2022-10-05T17:29:29.690Z,23.21
2022-10-05T17:32:37.243Z,23.33
2022-10-05T17:35:18.665Z,23.35
2022-10-05T17:38:17.097Z,23.15
2022-10-05T17:41:23.532Z,22.85
2022-10-05T17:44:21.567Z,23.04
2022-10-05T17:47:00.475Z,22.60
2022-10-05T17:50:15.287Z,22.60
2022-10-05T17:53:02.922Z,22.89
2022-10-05T17:55:33.911Z,22.90
2022-10-05T17:58:24.235Z,22.72
2022-10-05T18:01:06.893Z,22.72
2022-10-05T18:03:51.520Z,22.72
2022-10-05T18:06:37.452Z,22.42
2022-10-05T18:09:14.052Z,22.43
2022-10-05T18:11:45.146Z,22.27
2022-10-05T18:14:25.115Z,22.21
2022-10-05T18:17:13.539Z,22.05
2022-10-05T18:19:41.424Z,22.16
2022-10-05T18:22:17.770Z,21.86
2022-10-05T18:25:12.026Z,21.70
2022-10-05T18:28:02.410Z,21.49
2022-10-05T18:30:40.659Z,21.37
2022-10-05T18:33:29.863Z,21.03
2022-10-05T18:36:42.786Z,20.97
2022-10-05T18:39:50.543Z,20.82
2022-10-05T18:43:17.999Z,20.39
2022-10-05T18:46:42.112Z,20.21
2022-10-05T18:49:51.732Z,19.81
2022-10-05T18:53:15.651Z,19.62
2022-10-05T18:55:59.138Z,19.72
2022-10-05T18:58:53.221Z,19.75
2022-10-05T19:01:35.426Z,19.52
2022-10-05T19:04:59.678Z,19.35
2022-10-05T19:07:37.026Z,18.93
2022-10-05T19:10:18.418Z,19.03
2022-10-05T19:13:14.295Z,18.91
2022-10-05T19:16:38.258Z,18.81
2022-10-05T19:20:01.635Z,18.53
2022-10-05T19:23:32.781Z,18.35
2022-10-05T19:26:15.940Z,18.47
2022-10-05T19:29:39.809Z,18.22
2022-10-05T19:33:04.898Z,18.01
2022-10-05T19:36:28.347Z,17.95
2022-10-05T19:39:31.855Z,17.85
2022-10-05T19:42:33.588Z,18.08
2022-10-05T19:45:26.430Z,18.06
2022-10-05T19:48:13.811Z,18.01
2022-10-05T19:51:01.000Z,17.97
2022-10-05T19:53:37.994Z,17.91
2022-10-05T19:56:25.941Z,17.71
2022-10-05T19:58:59.266Z,17.66
2022-10-05T20:01:36.396Z,17.76
2022-10-05T20:04:04.996Z,17.50
2022-10-05T20:06:33.317Z,17.40
2022-10-05T20:09:20.168Z,17.42
2022-10-05T20:11:52.800Z,17.32
2022-10-05T20:14:33.658Z,17.34
2022-10-05T20:17:47.741Z,17.34
2022-10-05T20:20:36.867Z,17.17
2022-10-05T20:23:25.145Z,16.92
2022-10-05T20:26:11.632Z,17.00
2022-10-05T20:28:38.975Z,16.95
2022-10-05T20:31:09.295Z,16.89
2022-10-05T20:33:36.396Z,16.83
2022-10-05T20:36:04.277Z,16.81
2022-10-05T20:38:31.768Z,16.83
2022-10-05T20:40:59.004Z,16.80
2022-10-05T20:43:26.002Z,16.50
2022-10-05T20:45:53.727Z,16.31
2022-10-05T20:48:20.961Z,15.94
2022-10-05T20:50:48.061Z,16.03
2022-10-05T20:53:15.073Z,15.89
2022-10-05T20:55:43.066Z,15.89
2022-10-05T20:58:11.063Z,16.11
2022-10-05T21:00:56.926Z,16.11
2022-10-05T21:03:24.047Z,16.13
2022-10-05T21:05:51.063Z,16.17
2022-10-05T21:08:18.481Z,16.21
2022-10-05T21:10:45.690Z,16.17
2022-10-05T21:13:13.423Z,16.02
2022-10-05T21:15:40.850Z,16.06
2022-10-05T21:18:07.836Z,16.10
2022-10-05T21:20:35.117Z,16.06
2022-10-05T21:23:02.496Z,16.04
2022-10-05T21:25:29.786Z,16.02
2022-10-05T21:27:56.853Z,15.99
2022-10-05T21:30:23.941Z,15.93
2022-10-05T21:32:50.980Z,15.92
2022-10-05T21:35:18.022Z,15.85
2022-10-05T21:37:45.206Z,15.78
2022-10-05T21:40:12.538Z,15.79
2022-10-05T21:42:39.704Z,15.77
2022-10-05T21:45:07.685Z,15.73
2022-10-05T21:47:34.874Z,15.73
2022-10-05T21:50:05.135Z,15.65
2022-10-05T21:52:33.854Z,15.46
2022-10-05T21:55:02.562Z,15.45
2022-10-05T21:57:29.564Z,15.49
2022-10-05T21:59:56.843Z,15.48
2022-10-05T22:02:23.989Z,15.46
2022-10-05T22:04:51.038Z,15.43
2022-10-05T22:07:19.724Z,15.22
2022-10-05T22:09:49.253Z,15.26
2022-10-05T22:12:17.889Z,15.27
2022-10-05T22:14:45.121Z,15.28
2022-10-05T22:17:27.229Z,15.28
2022-10-05T22:19:55.550Z,15.05
2022-10-05T22:22:22.862Z,15.09
2022-10-05T22:24:50.754Z,15.04
2022-10-05T22:27:18.477Z,15.04
2022-10-05T22:29:45.895Z,15.03
2022-10-05T22:32:12.918Z,15.08
2022-10-05T22:34:39.926Z,15.04
2022-10-05T22:37:07.099Z,15.00
2022-10-05T22:39:34.101Z,14.95
2022-10-05T22:42:01.113Z,14.82
2022-10-05T22:44:28.215Z,14.90
2022-10-05T22:46:55.372Z,14.75
2022-10-05T22:49:22.399Z,14.85
2022-10-05T22:51:49.493Z,14.90
2022-10-05T22:54:17.442Z,14.79
2022-10-05T22:56:44.586Z,14.60
2022-10-05T22:59:11.667Z,14.77
2022-10-05T23:01:38.674Z,14.74
2022-10-05T23:04:07.827Z,14.71
2022-10-05T23:06:34.934Z,14.63
2022-10-05T23:09:02.065Z,14.68
2022-10-05T23:11:30.109Z,14.65
2022-10-05T23:13:57.967Z,14.72
2022-10-05T23:16:28.259Z,14.63
2022-10-05T23:18:57.256Z,14.36
2022-10-05T23:21:28.218Z,14.32
2022-10-05T23:23:55.633Z,14.38
2022-10-05T23:26:25.743Z,14.51
2022-10-05T23:28:53.594Z,14.28
2022-10-05T23:31:28.927Z,14.46
2022-10-05T23:33:56.253Z,14.28
2022-10-05T23:36:32.193Z,14.25
2022-10-05T23:39:00.375Z,14.28
2022-10-05T23:41:28.780Z,14.34
2022-10-05T23:43:55.916Z,14.29
2022-10-05T23:46:23.410Z,14.23
2022-10-05T23:48:50.725Z,14.13
2022-10-05T23:51:17.900Z,14.21
2022-10-05T23:53:45.127Z,14.08
2022-10-05T23:56:12.925Z,14.13
2022-10-05T23:58:40.655Z,14.19
